Main page
METAR-TAF:

METAR-TAF

Airports :

Munising, Michigan, United States

latitude: 46-24N, longitude: 086-39W, elevation: 613 ft

Current weather observation

The report was made 1 hour and 4 minutes ago, at 18:56 UTC
Wind 15 mph from the Northeast
Temperature 30°F
Humidity 69%
Pressure 30.36 in. Hg

METAR: KP53 241856Z AUTO 05013KT M01/M06 A3036 RMK AO1 SLP289 T10061056

Time: 16:00 (20:00 UTC)


TAF: missing

Weather observations and forecasts of more than 4000 airports (METAR and TAF reports).

The available stations are represented by yellow and red dots on the map.

Hover mouse over dot to see the name of the station.

Then click to see weather observations and forecasts.

To change the map : click on the green buttons with a black cross to zoom in, on the green button with a dash to zoom out, or on the green arrows for adjacent maps.


METAR-TAF: